首页
METAR-TAF:

METAR-TAF

机场 :

克基拉岛扬尼斯·卡波迪斯特里亚斯国际机场

克基拉島, 希腊

纬度: 39-37N, 经度: 019-55E, 海拔: 2米

当前天气观测

该预报发布于33分钟前的23:50 UTC
风速2节,风向西转西南
温度 15°C
湿度 88%
气压 1014 hPa
能见度10公里或以上
1500米以下无云,无积雨云

METAR: LGKR 312350Z 25002KT CAVOK 15/13 Q1014 NOSIG

时间: 03:23 (00:23 UTC)

预报

该预报发布于1小时和23分钟前的23:00 UTC
预报有效从01日的 00点(UTC)到 01日的 24点(UTC)
风速5节,风向多变
能见度10公里或以上
少量云层高于1800英尺
散云层高于3500英尺
成为
从 01日的 01点(UTC)到 01日的 03点(UTC)
风速14节,风向西北
几率 40% :
短暂存在
从 01日的 00点(UTC)到 01日的 07点(UTC)
能見度: 5000
少量云层高于1800英尺, 塔状积云.
多云层高于2000英尺
多云层高于8000英尺

TAF: LGKR 312300Z 0100/0124 VRB05KT 9999 FEW018 SCT035 BECMG 0101/0103 32014KT PROB40 TEMPO 0100/0107 5000 RA FEW018TCU BKN020 BKN080

超过4000个机场的气象观测和天气预报(METAR&TAF报告)。

可查询的气象台以黄色和红色小点在地图上表示。

将鼠标移到小点上方,可查看气象台名称。

然后点击查看天气观测和预报。

如需切换地图:点击带黑十字的绿色按钮放大地图;点击带横线的绿色按钮缩小地图;或者点击绿色箭头查看邻近地区的地图。


METAR-TAF: